sensor_id;sensor_type;location;lat;lon;timestamp;P1;durP1;ratioP1;P2;durP2;ratioP2
63953;SDS011;50128;52.094;5.232;2023-03-02T00:00:48;45.2;;;38.71;;
63953;SDS011;50128;52.094;5.232;2023-03-02T00:02:24;44.2;;;38.1;;
63953;SDS011;50128;52.094;5.232;2023-03-02T00:05:39;43.8;;;37.81;;
63953;SDS011;50128;52.094;5.232;2023-03-02T00:07:17;48.6;;;42.0;;
63953;SDS011;50128;52.094;5.232;2023-03-02T00:08:59;48.3;;;39.9;;
63953;SDS011;50128;52.094;5.232;2023-03-02T00:10:36;44.9;;;38.9;;
63953;SDS011;50128;52.094;5.232;2023-03-02T00:13:50;48.8;;;41.7;;
63953;SDS011;50128;52.094;5.232;2023-03-02T00:15:26;46.9;;;40.81;;
63953;SDS011;50128;52.094;5.232;2023-03-02T00:17:02;48.8;;;41.4;;
63953;SDS011;50128;52.094;5.232;2023-03-02T00:20:16;49.9;;;41.6;;
63953;SDS011;50128;52.094;5.232;2023-03-02T00:21:52;49.6;;;42.6;;
63953;SDS011;50128;52.094;5.232;2023-03-02T00:23:28;47.3;;;40.81;;
63953;SDS011;50128;52.094;5.232;2023-03-02T00:26:42;48.8;;;42.5;;
63953;SDS011;50128;52.094;5.232;2023-03-02T00:28:18;52.0;;;44.2;;
63953;SDS011;50128;52.094;5.232;2023-03-02T00:29:54;49.9;;;43.4;;
63953;SDS011;50128;52.094;5.232;2023-03-02T00:31:31;52.2;;;43.7;;
63953;SDS011;50128;52.094;5.232;2023-03-02T00:34:43;49.7;;;42.0;;
63953;SDS011;50128;52.094;5.232;2023-03-02T00:36:19;53.8;;;45.3;;
63953;SDS011;50128;52.094;5.232;2023-03-02T00:37:57;57.2;;;46.7;;
63953;SDS011;50128;52.094;5.232;2023-03-02T00:41:10;57.9;;;46.9;;
63953;SDS011;50128;52.094;5.232;2023-03-02T00:42:47;56.2;;;46.1;;
63953;SDS011;50128;52.094;5.232;2023-03-02T00:44:23;54.3;;;46.8;;
63953;SDS011;50128;52.094;5.232;2023-03-02T00:47:43;62.0;;;49.7;;
63953;SDS011;50128;52.094;5.232;2023-03-02T00:49:19;57.8;;;48.5;;
63953;SDS011;50128;52.094;5.232;2023-03-02T00:50:59;66.7;;;52.2;;
63953;SDS011;50128;52.094;5.232;2023-03-02T00:52:35;63.5;;;51.7;;
63953;SDS011;50128;52.094;5.232;2023-03-02T00:55:51;60.4;;;48.7;;
63953;SDS011;50128;52.094;5.232;2023-03-02T00:57:29;66.8;;;51.2;;
63953;SDS011;50128;52.094;5.232;2023-03-02T00:59:05;63.2;;;48.4;;
63953;SDS011;50128;52.094;5.232;2023-03-02T01:02:19;60.2;;;48.1;;
63953;SDS011;50128;52.094;5.232;2023-03-02T01:03:56;60.4;;;47.7;;
63953;SDS011;50128;52.094;5.232;2023-03-02T01:05:34;56.4;;;44.8;;
63953;SDS011;50128;52.094;5.232;2023-03-02T01:07:11;56.9;;;46.1;;
63953;SDS011;50128;52.094;5.232;2023-03-02T01:10:27;56.0;;;45.2;;
63953;SDS011;50128;52.094;5.232;2023-03-02T01:12:05;57.7;;;44.9;;
63953;SDS011;50128;52.094;5.232;2023-03-02T01:13:44;55.7;;;44.9;;
63953;SDS011;50128;52.094;5.232;2023-03-02T01:16:57;57.0;;;45.6;;
63953;SDS011;50128;52.094;5.232;2023-03-02T01:18:33;58.5;;;46.6;;
63953;SDS011;50128;52.094;5.232;2023-03-02T01:20:10;55.9;;;44.5;;
63953;SDS011;50128;52.094;5.232;2023-03-02T01:21:47;60.0;;;47.0;;
63953;SDS011;50128;52.094;5.232;2023-03-02T01:25:00;58.0;;;44.9;;
63953;SDS011;50128;52.094;5.232;2023-03-02T01:26:36;60.4;;;46.6;;
63953;SDS011;50128;52.094;5.232;2023-03-02T01:28:13;61.3;;;46.9;;
63953;SDS011;50128;52.094;5.232;2023-03-02T01:31:26;61.9;;;46.7;;
63953;SDS011;50128;52.094;5.232;2023-03-02T01:33:03;64.6;;;48.9;;
63953;SDS011;50128;52.094;5.232;2023-03-02T01:34:39;63.7;;;48.4;;
63953;SDS011;50128;52.094;5.232;2023-03-02T01:37:52;66.0;;;50.3;;
63953;SDS011;50128;52.094;5.232;2023-03-02T01:39:28;62.3;;;47.0;;
63953;SDS011;50128;52.094;5.232;2023-03-02T01:41:04;64.3;;;47.6;;
63953;SDS011;50128;52.094;5.232;2023-03-02T01:42:44;63.7;;;47.4;;
63953;SDS011;50128;52.094;5.232;2023-03-02T01:46:21;60.6;;;45.8;;
63953;SDS011;50128;52.094;5.232;2023-03-02T01:48:00;68.5;;;49.9;;
63953;SDS011;50128;52.094;5.232;2023-03-02T01:49:36;62.3;;;46.8;;
63953;SDS011;50128;52.094;5.232;2023-03-02T01:51:12;61.9;;;46.3;;
63953;SDS011;50128;52.094;5.232;2023-03-02T01:54:29;62.4;;;46.9;;
63953;SDS011;50128;52.094;5.232;2023-03-02T01:56:05;59.2;;;47.2;;
63953;SDS011;50128;52.094;5.232;2023-03-02T01:57:42;59.5;;;46.4;;
63953;SDS011;50128;52.094;5.232;2023-03-02T01:59:23;69.5;;;50.7;;
63953;SDS011;50128;52.094;5.232;2023-03-02T02:02:41;66.1;;;48.3;;
63953;SDS011;50128;52.094;5.232;2023-03-02T02:04:17;67.2;;;48.8;;
63953;SDS011;50128;52.094;5.232;2023-03-02T02:05:59;67.91;;;50.0;;
63953;SDS011;50128;52.094;5.232;2023-03-02T02:07:43;61.2;;;46.6;;
63953;SDS011;50128;52.094;5.232;2023-03-02T02:11:00;60.5;;;45.7;;
63953;SDS011;50128;52.094;5.232;2023-03-02T02:12:36;62.5;;;47.0;;
63953;SDS011;50128;52.094;5.232;2023-03-02T02:14:12;64.0;;;47.5;;
63953;SDS011;50128;52.094;5.232;2023-03-02T02:17:27;64.1;;;47.4;;
63953;SDS011;50128;52.094;5.232;2023-03-02T02:19:05;64.91;;;48.2;;
63953;SDS011;50128;52.094;5.232;2023-03-02T02:21:00;61.9;;;47.5;;
63953;SDS011;50128;52.094;5.232;2023-03-02T02:22:39;61.7;;;47.7;;
63953;SDS011;50128;52.094;5.232;2023-03-02T02:26:14;58.3;;;44.8;;
63953;SDS011;50128;52.094;5.232;2023-03-02T02:27:55;62.8;;;48.1;;
63953;SDS011;50128;52.094;5.232;2023-03-02T02:29:32;61.9;;;47.2;;
63953;SDS011;50128;52.094;5.232;2023-03-02T02:31:13;59.8;;;44.8;;
63953;SDS011;50128;52.094;5.232;2023-03-02T02:32:54;58.4;;;45.9;;
63953;SDS011;50128;52.094;5.232;2023-03-02T02:36:17;59.1;;;45.2;;
63953;SDS011;50128;52.094;5.232;2023-03-02T02:38:00;57.1;;;45.1;;
63953;SDS011;50128;52.094;5.232;2023-03-02T02:39:42;63.0;;;46.8;;
63953;SDS011;50128;52.094;5.232;2023-03-02T02:41:21;62.1;;;47.0;;
63953;SDS011;50128;52.094;5.232;2023-03-02T02:44:37;57.2;;;44.1;;
63953;SDS011;50128;52.094;5.232;2023-03-02T02:46:13;58.2;;;44.6;;
63953;SDS011;50128;52.094;5.232;2023-03-02T02:47:51;55.5;;;44.3;;
63953;SDS011;50128;52.094;5.232;2023-03-02T02:51:11;60.9;;;46.8;;
63953;SDS011;50128;52.094;5.232;2023-03-02T02:52:55;57.1;;;44.8;;
63953;SDS011;50128;52.094;5.232;2023-03-02T02:54:35;56.8;;;44.8;;
63953;SDS011;50128;52.094;5.232;2023-03-02T02:56:13;61.1;;;46.9;;
63953;SDS011;50128;52.094;5.232;2023-03-02T02:59:34;58.3;;;44.5;;
63953;SDS011;50128;52.094;5.232;2023-03-02T03:01:15;57.5;;;44.0;;
63953;SDS011;50128;52.094;5.232;2023-03-02T03:02:56;59.5;;;45.6;;
63953;SDS011;50128;52.094;5.232;2023-03-02T03:04:48;58.6;;;43.4;;
63953;SDS011;50128;52.094;5.232;2023-03-02T03:06:27;61.1;;;46.3;;
63953;SDS011;50128;52.094;5.232;2023-03-02T03:09:45;59.1;;;45.7;;
63953;SDS011;50128;52.094;5.232;2023-03-02T03:11:27;51.8;;;42.2;;
63953;SDS011;50128;52.094;5.232;2023-03-02T03:13:05;51.9;;;39.9;;
63953;SDS011;50128;52.094;5.232;2023-03-02T03:14:43;49.9;;;39.9;;
63953;SDS011;50128;52.094;5.232;2023-03-02T03:18:00;50.3;;;40.81;;
63953;SDS011;50128;52.094;5.232;2023-03-02T03:19:38;57.6;;;43.6;;
63953;SDS011;50128;52.094;5.232;2023-03-02T03:21:15;55.3;;;42.0;;
63953;SDS011;50128;52.094;5.232;2023-03-02T03:24:29;54.1;;;42.7;;
63953;SDS011;50128;52.094;5.232;2023-03-02T03:26:07;51.9;;;39.9;;
63953;SDS011;50128;52.094;5.232;2023-03-02T03:27:43;52.5;;;41.2;;
63953;SDS011;50128;52.094;5.232;2023-03-02T03:29:20;49.1;;;40.31;;
63953;SDS011;50128;52.094;5.232;2023-03-02T03:32:34;51.8;;;41.0;;
63953;SDS011;50128;52.094;5.232;2023-03-02T03:34:10;53.4;;;41.8;;
63953;SDS011;50128;52.094;5.232;2023-03-02T03:35:47;54.2;;;40.9;;
63953;SDS011;50128;52.094;5.232;2023-03-02T03:38:59;55.5;;;41.7;;
63953;SDS011;50128;52.094;5.232;2023-03-02T03:40:37;52.4;;;40.6;;
63953;SDS011;50128;52.094;5.232;2023-03-02T03:42:13;52.1;;;40.31;;
63953;SDS011;50128;52.094;5.232;2023-03-02T03:45:26;47.8;;;38.1;;
63953;SDS011;50128;52.094;5.232;2023-03-02T03:47:03;53.4;;;41.8;;
63953;SDS011;50128;52.094;5.232;2023-03-02T03:48:39;51.0;;;40.4;;
63953;SDS011;50128;52.094;5.232;2023-03-02T03:50:15;52.1;;;40.6;;
63953;SDS011;50128;52.094;5.232;2023-03-02T03:53:28;51.2;;;39.31;;
63953;SDS011;50128;52.094;5.232;2023-03-02T03:55:04;53.1;;;41.6;;
63953;SDS011;50128;52.094;5.232;2023-03-02T03:56:42;49.2;;;38.1;;
63953;SDS011;50128;52.094;5.232;2023-03-02T04:01:35;53.7;;;41.3;;
63953;SDS011;50128;52.094;5.232;2023-03-02T04:03:14;52.9;;;40.21;;
63953;SDS011;50128;52.094;5.232;2023-03-02T04:04:51;61.4;;;45.5;;
63953;SDS011;50128;52.094;5.232;2023-03-02T04:08:03;46.8;;;36.81;;
63953;SDS011;50128;52.094;5.232;2023-03-02T04:09:40;51.1;;;39.4;;
63953;SDS011;50128;52.094;5.232;2023-03-02T04:11:16;52.8;;;39.71;;
63953;SDS011;50128;52.094;5.232;2023-03-02T04:14:29;49.1;;;38.9;;
63953;SDS011;50128;52.094;5.232;2023-03-02T04:16:05;47.2;;;37.9;;
63953;SDS011;50128;52.094;5.232;2023-03-02T04:17:42;48.5;;;38.21;;
63953;SDS011;50128;52.094;5.232;2023-03-02T04:20:55;48.7;;;37.81;;
63953;SDS011;50128;52.094;5.232;2023-03-02T04:22:31;44.1;;;35.4;;
63953;SDS011;50128;52.094;5.232;2023-03-02T04:24:07;47.0;;;38.31;;
63953;SDS011;50128;52.094;5.232;2023-03-02T04:27:21;48.7;;;38.21;;
63953;SDS011;50128;52.094;5.232;2023-03-02T04:28:57;50.6;;;38.31;;
63953;SDS011;50128;52.094;5.232;2023-03-02T04:30:33;47.5;;;37.21;;
63953;SDS011;50128;52.094;5.232;2023-03-02T04:32:09;46.5;;;37.0;;
63953;SDS011;50128;52.094;5.232;2023-03-02T04:35:22;44.0;;;35.71;;
63953;SDS011;50128;52.094;5.232;2023-03-02T04:36:59;44.6;;;34.81;;
63953;SDS011;50128;52.094;5.232;2023-03-02T04:38:37;46.3;;;36.0;;
63953;SDS011;50128;52.094;5.232;2023-03-02T04:41:51;46.9;;;35.9;;
63953;SDS011;50128;52.094;5.232;2023-03-02T04:43:29;42.6;;;34.1;;
63953;SDS011;50128;52.094;5.232;2023-03-02T04:45:06;46.6;;;36.0;;
63953;SDS011;50128;52.094;5.232;2023-03-02T04:46:43;45.4;;;36.1;;
63953;SDS011;50128;52.094;5.232;2023-03-02T04:49:58;50.3;;;37.81;;
63953;SDS011;50128;52.094;5.232;2023-03-02T04:51:35;45.9;;;35.31;;
63953;SDS011;50128;52.094;5.232;2023-03-02T04:53:13;51.3;;;37.81;;
63953;SDS011;50128;52.094;5.232;2023-03-02T04:56:25;44.4;;;36.0;;
63953;SDS011;50128;52.094;5.232;2023-03-02T04:58:02;50.8;;;38.81;;
63953;SDS011;50128;52.094;5.232;2023-03-02T04:59:39;47.1;;;37.6;;
63953;SDS011;50128;52.094;5.232;2023-03-02T05:02:54;50.6;;;38.5;;
63953;SDS011;50128;52.094;5.232;2023-03-02T05:04:30;45.6;;;36.5;;
63953;SDS011;50128;52.094;5.232;2023-03-02T05:06:07;47.5;;;36.6;;
63953;SDS011;50128;52.094;5.232;2023-03-02T05:07:45;46.7;;;35.9;;
63953;SDS011;50128;52.094;5.232;2023-03-02T05:10:59;54.2;;;39.5;;
63953;SDS011;50128;52.094;5.232;2023-03-02T05:12:36;50.1;;;37.81;;
63953;SDS011;50128;52.094;5.232;2023-03-02T05:14:12;47.1;;;36.9;;
63953;SDS011;50128;52.094;5.232;2023-03-02T05:17:25;44.3;;;35.1;;
63953;SDS011;50128;52.094;5.232;2023-03-02T05:19:02;46.2;;;36.81;;
63953;SDS011;50128;52.094;5.232;2023-03-02T05:20:40;45.0;;;36.81;;
63953;SDS011;50128;52.094;5.232;2023-03-02T05:22:16;53.0;;;38.31;;
63953;SDS011;50128;52.094;5.232;2023-03-02T05:25:30;51.3;;;38.1;;
63953;SDS011;50128;52.094;5.232;2023-03-02T05:27:08;50.1;;;38.0;;
63953;SDS011;50128;52.094;5.232;2023-03-02T05:28:44;48.9;;;37.9;;
63953;SDS011;50128;52.094;5.232;2023-03-02T05:31:58;48.3;;;36.9;;
63953;SDS011;50128;52.094;5.232;2023-03-02T05:33:34;53.4;;;39.5;;
63953;SDS011;50128;52.094;5.232;2023-03-02T05:35:11;49.1;;;38.4;;
63953;SDS011;50128;52.094;5.232;2023-03-02T05:38:24;55.9;;;40.81;;
63953;SDS011;50128;52.094;5.232;2023-03-02T05:40:01;48.1;;;37.1;;
63953;SDS011;50128;52.094;5.232;2023-03-02T05:41:37;48.3;;;37.5;;
63953;SDS011;50128;52.094;5.232;2023-03-02T05:43:15;49.5;;;37.81;;
63953;SDS011;50128;52.094;5.232;2023-03-02T05:46:31;53.1;;;39.9;;
63953;SDS011;50128;52.094;5.232;2023-03-02T05:48:07;54.1;;;40.9;;
63953;SDS011;50128;52.094;5.232;2023-03-02T05:49:45;53.4;;;40.6;;
63953;SDS011;50128;52.094;5.232;2023-03-02T05:52:57;55.9;;;40.5;;
63953;SDS011;50128;52.094;5.232;2023-03-02T05:54:34;60.1;;;41.8;;
63953;SDS011;50128;52.094;5.232;2023-03-02T05:56:11;57.3;;;41.3;;
63953;SDS011;50128;52.094;5.232;2023-03-02T05:59:23;54.8;;;40.71;;
63953;SDS011;50128;52.094;5.232;2023-03-02T06:00:59;56.0;;;42.1;;
63953;SDS011;50128;52.094;5.232;2023-03-02T06:02:36;54.4;;;40.9;;
63953;SDS011;50128;52.094;5.232;2023-03-02T06:04:12;57.7;;;42.0;;
63953;SDS011;50128;52.094;5.232;2023-03-02T06:07:25;61.0;;;43.8;;
63953;SDS011;50128;52.094;5.232;2023-03-02T06:09:01;56.6;;;41.7;;
63953;SDS011;50128;52.094;5.232;2023-03-02T06:10:37;52.4;;;40.4;;
63953;SDS011;50128;52.094;5.232;2023-03-02T06:13:49;53.3;;;39.5;;
63953;SDS011;50128;52.094;5.232;2023-03-02T06:15:26;50.7;;;39.21;;
63953;SDS011;50128;52.094;5.232;2023-03-02T06:17:03;50.2;;;38.6;;
63953;SDS011;50128;52.094;5.232;2023-03-02T06:20:15;58.4;;;42.1;;
63953;SDS011;50128;52.094;5.232;2023-03-02T06:21:52;57.5;;;42.5;;
63953;SDS011;50128;52.094;5.232;2023-03-02T06:23:28;60.3;;;42.1;;
63953;SDS011;50128;52.094;5.232;2023-03-02T06:25:05;62.7;;;43.6;;
63953;SDS011;50128;52.094;5.232;2023-03-02T06:28:18;64.0;;;45.7;;
63953;SDS011;50128;52.094;5.232;2023-03-02T06:29:54;60.2;;;44.2;;
63953;SDS011;50128;52.094;5.232;2023-03-02T06:31:30;59.6;;;43.4;;
63953;SDS011;50128;52.094;5.232;2023-03-02T06:34:42;57.0;;;42.1;;
63953;SDS011;50128;52.094;5.232;2023-03-02T06:36:18;56.2;;;41.6;;
63953;SDS011;50128;52.094;5.232;2023-03-02T06:37:54;57.3;;;42.6;;
63953;SDS011;50128;52.094;5.232;2023-03-02T06:41:07;59.7;;;44.6;;
63953;SDS011;50128;52.094;5.232;2023-03-02T06:42:43;58.9;;;43.2;;
63953;SDS011;50128;52.094;5.232;2023-03-02T06:44:19;58.9;;;42.3;;
63953;SDS011;50128;52.094;5.232;2023-03-02T06:45:55;54.9;;;41.2;;
63953;SDS011;50128;52.094;5.232;2023-03-02T06:49:08;62.4;;;44.3;;
63953;SDS011;50128;52.094;5.232;2023-03-02T06:50:46;62.3;;;44.0;;
63953;SDS011;50128;52.094;5.232;2023-03-02T06:52:22;57.5;;;41.5;;
63953;SDS011;50128;52.094;5.232;2023-03-02T06:55:34;56.2;;;42.0;;
63953;SDS011;50128;52.094;5.232;2023-03-02T06:57:10;57.2;;;41.6;;
63953;SDS011;50128;52.094;5.232;2023-03-02T06:58:46;59.0;;;43.4;;
63953;SDS011;50128;52.094;5.232;2023-03-02T07:02:00;54.5;;;41.0;;
63953;SDS011;50128;52.094;5.232;2023-03-02T07:03:37;55.9;;;41.0;;
63953;SDS011;50128;52.094;5.232;2023-03-02T07:05:13;51.1;;;38.81;;
63953;SDS011;50128;52.094;5.232;2023-03-02T07:08:25;58.4;;;42.0;;
63953;SDS011;50128;52.094;5.232;2023-03-02T07:10:02;51.3;;;38.4;;
63953;SDS011;50128;52.094;5.232;2023-03-02T07:11:39;55.5;;;40.1;;
63953;SDS011;50128;52.094;5.232;2023-03-02T07:13:16;55.5;;;41.0;;
63953;SDS011;50128;52.094;5.232;2023-03-02T07:16:28;60.2;;;43.7;;
63953;SDS011;50128;52.094;5.232;2023-03-02T07:18:04;57.3;;;41.2;;
63953;SDS011;50128;52.094;5.232;2023-03-02T07:19:40;50.5;;;38.6;;
63953;SDS011;50128;52.094;5.232;2023-03-02T07:22:52;56.0;;;40.81;;
63953;SDS011;50128;52.094;5.232;2023-03-02T07:24:29;57.9;;;42.2;;
63953;SDS011;50128;52.094;5.232;2023-03-02T07:26:05;51.7;;;38.81;;
63953;SDS011;50128;52.094;5.232;2023-03-02T07:29:17;52.9;;;39.4;;
63953;SDS011;50128;52.094;5.232;2023-03-02T07:30:53;53.3;;;39.21;;
63953;SDS011;50128;52.094;5.232;2023-03-02T07:32:29;54.1;;;40.4;;
63953;SDS011;50128;52.094;5.232;2023-03-02T07:34:05;54.3;;;39.31;;
63953;SDS011;50128;52.094;5.232;2023-03-02T07:37:18;53.7;;;40.1;;
63953;SDS011;50128;52.094;5.232;2023-03-02T07:38:54;52.1;;;38.81;;
63953;SDS011;50128;52.094;5.232;2023-03-02T07:40:30;55.1;;;39.4;;
63953;SDS011;50128;52.094;5.232;2023-03-02T07:43:42;48.8;;;37.4;;
63953;SDS011;50128;52.094;5.232;2023-03-02T07:45:18;56.4;;;39.71;;
63953;SDS011;50128;52.094;5.232;2023-03-02T07:46:55;51.5;;;38.1;;
63953;SDS011;50128;52.094;5.232;2023-03-02T07:50:08;55.8;;;38.0;;
63953;SDS011;50128;52.094;5.232;2023-03-02T07:51:45;53.2;;;38.81;;
63953;SDS011;50128;52.094;5.232;2023-03-02T07:53:22;53.3;;;38.4;;
63953;SDS011;50128;52.094;5.232;2023-03-02T07:54:58;51.5;;;36.6;;
63953;SDS011;50128;52.094;5.232;2023-03-02T07:58:11;50.0;;;37.1;;
63953;SDS011;50128;52.094;5.232;2023-03-02T07:59:47;50.2;;;36.6;;
63953;SDS011;50128;52.094;5.232;2023-03-02T08:01:23;48.1;;;35.0;;
63953;SDS011;50128;52.094;5.232;2023-03-02T08:04:35;51.1;;;36.4;;
63953;SDS011;50128;52.094;5.232;2023-03-02T08:06:12;49.2;;;36.5;;
63953;SDS011;50128;52.094;5.232;2023-03-02T08:07:48;50.7;;;34.6;;
63953;SDS011;50128;52.094;5.232;2023-03-02T08:11:03;43.7;;;33.21;;
63953;SDS011;50128;52.094;5.232;2023-03-02T08:12:41;40.81;;;32.1;;
63953;SDS011;50128;52.094;5.232;2023-03-02T08:14:17;43.1;;;31.9;;
63953;SDS011;50128;52.094;5.232;2023-03-02T08:15:57;43.6;;;33.0;;
63953;SDS011;50128;52.094;5.232;2023-03-02T08:19:10;41.9;;;30.6;;
63953;SDS011;50128;52.094;5.232;2023-03-02T08:20:47;40.31;;;30.3;;
63953;SDS011;50128;52.094;5.232;2023-03-02T08:22:23;39.71;;;29.6;;
63953;SDS011;50128;52.094;5.232;2023-03-02T08:25:35;36.21;;;28.2;;
63953;SDS011;50128;52.094;5.232;2023-03-02T08:27:12;36.4;;;26.8;;
63953;SDS011;50128;52.094;5.232;2023-03-02T08:28:49;34.21;;;26.1;;
63953;SDS011;50128;52.094;5.232;2023-03-02T08:32:02;34.71;;;25.6;;
63953;SDS011;50128;52.094;5.232;2023-03-02T08:33:39;33.5;;;25.3;;
63953;SDS011;50128;52.094;5.232;2023-03-02T08:35:15;32.3;;;24.9;;
63953;SDS011;50128;52.094;5.232;2023-03-02T08:36:51;32.1;;;23.2;;
63953;SDS011;50128;52.094;5.232;2023-03-02T08:40:06;31.2;;;23.3;;
63953;SDS011;50128;52.094;5.232;2023-03-02T08:41:44;29.4;;;22.1;;
63953;SDS011;50128;52.094;5.232;2023-03-02T08:43:20;31.7;;;24.0;;
63953;SDS011;50128;52.094;5.232;2023-03-02T08:46:34;30.5;;;23.0;;
63953;SDS011;50128;52.094;5.232;2023-03-02T08:48:10;30.0;;;22.6;;
63953;SDS011;50128;52.094;5.232;2023-03-02T08:49:46;30.2;;;22.6;;
63953;SDS011;50128;52.094;5.232;2023-03-02T08:53:01;29.0;;;22.3;;
63953;SDS011;50128;52.094;5.232;2023-03-02T08:54:37;27.6;;;21.1;;
63953;SDS011;50128;52.094;5.232;2023-03-02T08:56:13;27.6;;;21.3;;
63953;SDS011;50128;52.094;5.232;2023-03-02T08:57:51;27.3;;;21.3;;
63953;SDS011;50128;52.094;5.232;2023-03-02T09:01:03;27.3;;;19.7;;
63953;SDS011;50128;52.094;5.232;2023-03-02T09:02:39;29.2;;;21.4;;
63953;SDS011;50128;52.094;5.232;2023-03-02T09:04:16;27.1;;;20.9;;
63953;SDS011;50128;52.094;5.232;2023-03-02T09:07:28;28.6;;;21.2;;
63953;SDS011;50128;52.094;5.232;2023-03-02T09:09:05;30.8;;;22.4;;
63953;SDS011;50128;52.094;5.232;2023-03-02T09:10:42;26.7;;;20.5;;
63953;SDS011;50128;52.094;5.232;2023-03-02T09:13:54;27.4;;;21.1;;
63953;SDS011;50128;52.094;5.232;2023-03-02T09:15:31;27.2;;;20.7;;
63953;SDS011;50128;52.094;5.232;2023-03-02T09:17:07;27.4;;;20.5;;
63953;SDS011;50128;52.094;5.232;2023-03-02T09:18:43;28.6;;;21.3;;
63953;SDS011;50128;52.094;5.232;2023-03-02T09:21:55;29.3;;;21.0;;
63953;SDS011;50128;52.094;5.232;2023-03-02T09:23:32;27.8;;;20.6;;
63953;SDS011;50128;52.094;5.232;2023-03-02T09:25:08;27.3;;;20.8;;
63953;SDS011;50128;52.094;5.232;2023-03-02T09:28:21;26.8;;;21.0;;
63953;SDS011;50128;52.094;5.232;2023-03-02T09:29:58;29.4;;;21.7;;
63953;SDS011;50128;52.094;5.232;2023-03-02T09:31:34;30.7;;;22.7;;
63953;SDS011;50128;52.094;5.232;2023-03-02T09:34:48;29.7;;;22.3;;
63953;SDS011;50128;52.094;5.232;2023-03-02T09:36:25;28.2;;;21.1;;
63953;SDS011;50128;52.094;5.232;2023-03-02T09:38:01;28.7;;;22.3;;
63953;SDS011;50128;52.094;5.232;2023-03-02T09:39:38;29.5;;;21.9;;
63953;SDS011;50128;52.094;5.232;2023-03-02T09:44:41;27.8;;;21.0;;
63953;SDS011;50128;52.094;5.232;2023-03-02T09:46:39;29.0;;;21.7;;
63953;SDS011;50128;52.094;5.232;2023-03-02T09:48:24;28.8;;;20.8;;
63953;SDS011;50128;52.094;5.232;2023-03-02T09:50:15;25.3;;;20.7;;
63953;SDS011;50128;52.094;5.232;2023-03-02T09:52:13;26.8;;;20.7;;
63953;SDS011;50128;52.094;5.232;2023-03-02T09:55:46;25.9;;;19.3;;
63953;SDS011;50128;52.094;5.232;2023-03-02T09:57:30;24.5;;;18.91;;
63953;SDS011;50128;52.094;5.232;2023-03-02T09:59:11;26.2;;;20.7;;
63953;SDS011;50128;52.094;5.232;2023-03-02T10:00:55;27.2;;;19.8;;
63953;SDS011;50128;52.094;5.232;2023-03-02T10:02:36;27.0;;;20.8;;
63953;SDS011;50128;52.094;5.232;2023-03-02T10:06:02;28.4;;;19.8;;
63953;SDS011;50128;52.094;5.232;2023-03-02T10:07:39;38.31;;;20.9;;
63953;SDS011;50128;52.094;5.232;2023-03-02T10:12:40;27.9;;;20.3;;
63953;SDS011;50128;52.094;5.232;2023-03-02T10:14:29;27.9;;;20.0;;
63953;SDS011;50128;52.094;5.232;2023-03-02T10:16:15;26.9;;;19.5;;
63953;SDS011;50128;52.094;5.232;2023-03-02T10:18:02;29.7;;;19.61;;
63953;SDS011;50128;52.094;5.232;2023-03-02T10:19:50;26.2;;;18.61;;
63953;SDS011;50128;52.094;5.232;2023-03-02T10:21:31;23.7;;;17.8;;
63953;SDS011;50128;52.094;5.232;2023-03-02T10:25:28;29.1;;;18.7;;
63953;SDS011;50128;52.094;5.232;2023-03-02T10:27:14;27.0;;;18.8;;
63953;SDS011;50128;52.094;5.232;2023-03-02T10:28:54;28.7;;;18.8;;
63953;SDS011;50128;52.094;5.232;2023-03-02T10:30:37;25.5;;;18.61;;
63953;SDS011;50128;52.094;5.232;2023-03-02T10:32:17;25.4;;;18.11;;
63953;SDS011;50128;52.094;5.232;2023-03-02T10:33:58;24.3;;;17.7;;
63953;SDS011;50128;52.094;5.232;2023-03-02T10:37:22;25.1;;;18.41;;
63953;SDS011;50128;52.094;5.232;2023-03-02T10:39:00;25.5;;;17.7;;
63953;SDS011;50128;52.094;5.232;2023-03-02T10:40:42;25.6;;;18.8;;
63953;SDS011;50128;52.094;5.232;2023-03-02T10:42:23;25.0;;;17.61;;
63953;SDS011;50128;52.094;5.232;2023-03-02T10:45:57;23.3;;;17.41;;
63953;SDS011;50128;52.094;5.232;2023-03-02T10:47:34;23.8;;;17.11;;
63953;SDS011;50128;52.094;5.232;2023-03-02T10:49:26;22.7;;;16.8;;
63953;SDS011;50128;52.094;5.232;2023-03-02T10:51:04;24.7;;;17.61;;
63953;SDS011;50128;52.094;5.232;2023-03-02T10:54:25;22.0;;;16.61;;
63953;SDS011;50128;52.094;5.232;2023-03-02T10:56:04;26.5;;;17.3;;
63953;SDS011;50128;52.094;5.232;2023-03-02T10:57:40;21.8;;;16.61;;
63953;SDS011;50128;52.094;5.232;2023-03-02T10:59:28;22.7;;;16.7;;
63953;SDS011;50128;52.094;5.232;2023-03-02T11:01:14;22.8;;;17.3;;
63953;SDS011;50128;52.094;5.232;2023-03-02T11:04:31;21.1;;;16.3;;
63953;SDS011;50128;52.094;5.232;2023-03-02T11:06:10;22.2;;;16.3;;
63953;SDS011;50128;52.094;5.232;2023-03-02T11:07:53;22.3;;;16.4;;
63953;SDS011;50128;52.094;5.232;2023-03-02T11:09:31;20.8;;;16.3;;
63953;SDS011;50128;52.094;5.232;2023-03-02T11:12:57;24.4;;;17.61;;
63953;SDS011;50128;52.094;5.232;2023-03-02T11:14:36;23.4;;;18.11;;
63953;SDS011;50128;52.094;5.232;2023-03-02T11:16:21;23.5;;;18.3;;
63953;SDS011;50128;52.094;5.232;2023-03-02T11:18:00;24.2;;;19.11;;
63953;SDS011;50128;52.094;5.232;2023-03-02T11:21:19;23.8;;;17.8;;
63953;SDS011;50128;52.094;5.232;2023-03-02T11:23:04;24.0;;;18.61;;
63953;SDS011;50128;52.094;5.232;2023-03-02T11:24:55;24.6;;;18.5;;
63953;SDS011;50128;52.094;5.232;2023-03-02T11:26:38;22.0;;;18.11;;
63953;SDS011;50128;52.094;5.232;2023-03-02T11:28:34;24.8;;;19.0;;
63953;SDS011;50128;52.094;5.232;2023-03-02T11:31:58;24.8;;;19.0;;
63953;SDS011;50128;52.094;5.232;2023-03-02T11:33:49;25.4;;;18.8;;
63953;SDS011;50128;52.094;5.232;2023-03-02T11:35:36;23.3;;;18.3;;
63953;SDS011;50128;52.094;5.232;2023-03-02T11:37:19;27.2;;;20.6;;
63953;SDS011;50128;52.094;5.232;2023-03-02T11:38:57;25.2;;;19.2;;
63953;SDS011;50128;52.094;5.232;2023-03-02T11:42:20;28.5;;;20.7;;
63953;SDS011;50128;52.094;5.232;2023-03-02T11:44:12;26.5;;;19.7;;
63953;SDS011;50128;52.094;5.232;2023-03-02T11:45:54;24.5;;;19.0;;
63953;SDS011;50128;52.094;5.232;2023-03-02T11:47:33;22.7;;;17.61;;
63953;SDS011;50128;52.094;5.232;2023-03-02T11:50:54;17.2;;;13.7;;
63953;SDS011;50128;52.094;5.232;2023-03-02T11:52:35;15.3;;;11.9;;
63953;SDS011;50128;52.094;5.232;2023-03-02T11:54:20;16.4;;;12.1;;
63953;SDS011;50128;52.094;5.232;2023-03-02T11:56:09;13.8;;;10.7;;
63953;SDS011;50128;52.094;5.232;2023-03-02T11:57:47;14.0;;;11.0;;
63953;SDS011;50128;52.094;5.232;2023-03-02T12:01:04;14.8;;;11.0;;
63953;SDS011;50128;52.094;5.232;2023-03-02T12:02:56;18.7;;;14.3;;
63953;SDS011;50128;52.094;5.232;2023-03-02T12:04:34;24.6;;;19.0;;
63953;SDS011;50128;52.094;5.232;2023-03-02T12:06:33;24.5;;;19.7;;
63953;SDS011;50128;52.094;5.232;2023-03-02T12:08:29;24.8;;;19.41;;
63953;SDS011;50128;52.094;5.232;2023-03-02T12:12:38;25.3;;;18.91;;
63953;SDS011;50128;52.094;5.232;2023-03-02T12:15:24;25.0;;;17.91;;
63953;SDS011;50128;52.094;5.232;2023-03-02T12:17:19;24.6;;;18.41;;
63953;SDS011;50128;52.094;5.232;2023-03-02T12:19:12;23.8;;;17.7;;
63953;SDS011;50128;52.094;5.232;2023-03-02T12:21:00;23.1;;;19.11;;
63953;SDS011;50128;52.094;5.232;2023-03-02T12:24:22;22.7;;;18.3;;
63953;SDS011;50128;52.094;5.232;2023-03-02T12:26:05;22.4;;;17.91;;
63953;SDS011;50128;52.094;5.232;2023-03-02T12:27:43;24.4;;;19.41;;
63953;SDS011;50128;52.094;5.232;2023-03-02T12:29:22;24.5;;;19.11;;
63953;SDS011;50128;52.094;5.232;2023-03-02T12:32:44;24.3;;;18.61;;
63953;SDS011;50128;52.094;5.232;2023-03-02T12:34:35;23.4;;;18.5;;
63953;SDS011;50128;52.094;5.232;2023-03-02T12:36:15;22.6;;;18.41;;
63953;SDS011;50128;52.094;5.232;2023-03-02T12:38:00;25.3;;;19.11;;
63953;SDS011;50128;52.094;5.232;2023-03-02T12:39:52;23.5;;;18.3;;
63953;SDS011;50128;52.094;5.232;2023-03-02T12:42:43;24.3;;;18.91;;